Time;durP1;ratioP1;P1;durP2;ratioP2;P2;SDS_P1;SDS_P2;PMS_P1;PMS_P2;Temp;Humidity;BMP_temperature;BMP_pressure;BME280_temperature;BME280_humidity;BME280_pressure;Samples;Min_cycle;Max_cycle;Signal;HPM_P1;HPM_P2
2023/08/12 00:00:47;;;;;;;22.73;15.68;;;19.70;99.90;;;;;;7277417;32;20243;-56
2023/08/12 00:04:48;;;;;;;22.92;16.42;;;19.70;99.90;;;;;;7272127;32;20275;-54
2023/08/12 00:08:50;;;;;;;27.35;17.67;;;19.70;99.90;;;;;;7276999;32;20211;-55
2023/08/12 00:12:52;;;;;;;23.23;17.77;;;19.70;99.90;;;;;;7278808;32;20228;-54
2023/08/12 00:16:54;;;;;;;20.95;15.25;;;19.70;99.90;;;;;;7274144;32;20123;-55
2023/08/12 00:20:55;;;;;;;20.88;15.35;;;19.70;99.90;;;;;;7268783;32;20123;-55
2023/08/12 00:24:57;;;;;;;19.67;15.25;;;19.60;99.90;;;;;;7271812;32;20132;-54
2023/08/12 00:28:59;;;;;;;22.20;16.90;;;19.70;99.90;;;;;;7272632;32;20108;-54
2023/08/12 00:33:01;;;;;;;29.05;20.58;;;19.70;99.90;;;;;;7276392;32;20450;-54
2023/08/12 00:37:03;;;;;;;21.08;16.65;;;19.60;99.90;;;;;;7278173;32;20266;-56
2023/08/12 00:41:04;;;;;;;23.80;18.27;;;19.60;99.90;;;;;;7277790;32;20112;-55
2023/08/12 00:45:10;;;;;;;24.75;18.83;;;19.60;99.90;;;;;;7271954;32;20131;-54
2023/08/12 00:49:12;;;;;;;25.95;19.02;;;19.60;99.90;;;;;;7264894;32;20268;-55
2023/08/12 00:53:15;;;;;;;19.30;14.63;;;19.60;99.90;;;;;;7275983;32;20177;-54
2023/08/12 00:57:17;;;;;;;21.45;15.48;;;19.60;99.90;;;;;;7272067;32;20128;-57
2023/08/12 01:01:20;;;;;;;23.52;17.00;;;19.50;99.90;;;;;;7278721;32;20119;-54
2023/08/12 01:05:23;;;;;;;20.55;13.52;;;19.50;99.90;;;;;;7271421;32;20213;-55
2023/08/12 01:09:25;;;;;;;18.87;15.13;;;19.50;99.90;;;;;;7270253;32;20104;-55
2023/08/12 01:13:37;;;;;;;17.25;11.52;;;19.50;99.90;;;;;;7275477;32;20234;-54
2023/08/12 01:17:41;;;;;;;18.23;12.65;;;19.40;99.90;;;;;;7265440;32;20480;-54
2023/08/12 01:21:45;;;;;;;19.50;14.20;;;19.50;99.90;;;;;;7270841;32;20123;-55
2023/08/12 01:25:47;;;;;;;15.18;12.68;;;19.50;99.90;;;;;;7279124;32;20333;-55
2023/08/12 01:29:51;;;;;;;15.25;11.32;;;19.50;99.90;;;;;;7259139;32;20234;-54
2023/08/12 01:34:02;;;;;;;13.10;9.77;;;19.40;99.90;;;;;;7267544;32;20497;-54
2023/08/12 01:38:08;;;;;;;15.45;13.05;;;19.40;99.90;;;;;;7260999;32;20143;-55
2023/08/12 01:42:10;;;;;;;22.67;17.70;;;19.40;99.90;;;;;;7266435;32;20123;-56
2023/08/12 01:46:12;;;;;;;15.23;12.52;;;19.30;99.90;;;;;;7271031;32;20660;-54
2023/08/12 01:50:15;;;;;;;21.10;15.10;;;19.30;99.90;;;;;;7264436;32;20199;-54
2023/08/12 01:54:17;;;;;;;16.77;14.10;;;19.30;99.90;;;;;;7270512;32;20287;-54
2023/08/12 01:58:18;;;;;;;16.40;13.45;;;19.30;99.90;;;;;;7267311;32;20180;-54
2023/08/12 02:02:20;;;;;;;16.95;14.27;;;19.30;99.90;;;;;;7275887;32;20101;-55
2023/08/12 02:06:22;;;;;;;16.65;12.73;;;19.30;99.90;;;;;;7270716;32;20150;-55
2023/08/12 02:10:24;;;;;;;16.20;11.32;;;19.20;99.90;;;;;;7271915;32;20158;-55
2023/08/12 02:14:25;;;;;;;18.70;15.85;;;19.20;99.90;;;;;;7271085;32;20127;-55
2023/08/12 02:18:27;;;;;;;22.10;17.08;;;19.20;99.90;;;;;;7272945;32;20195;-55
2023/08/12 02:22:29;;;;;;;18.35;14.50;;;19.20;99.90;;;;;;7266495;32;20177;-55
2023/08/12 02:26:31;;;;;;;16.75;14.00;;;19.20;99.90;;;;;;7269942;32;20785;-55
2023/08/12 02:30:33;;;;;;;20.27;16.40;;;19.20;99.90;;;;;;7273136;32;20537;-55
2023/08/12 02:34:34;;;;;;;22.10;17.27;;;19.20;99.90;;;;;;7269299;32;20241;-56
2023/08/12 02:38:36;;;;;;;24.02;16.95;;;19.20;99.90;;;;;;7269046;32;20210;-56
2023/08/12 02:42:38;;;;;;;25.90;17.40;;;19.20;99.90;;;;;;7272223;32;20149;-57
2023/08/12 02:46:39;;;;;;;18.80;14.90;;;19.20;99.90;;;;;;7272063;32;20142;-55
2023/08/12 02:50:41;;;;;;;17.20;13.48;;;19.20;99.90;;;;;;7272614;32;20101;-55
2023/08/12 02:54:43;;;;;;;19.67;16.37;;;19.10;99.90;;;;;;7266724;32;20202;-55
2023/08/12 02:58:45;;;;;;;30.20;23.70;;;19.20;99.90;;;;;;7271556;32;20182;-56
2023/08/12 03:02:46;;;;;;;35.63;26.52;;;19.20;99.90;;;;;;7269412;32;20636;-55
2023/08/12 03:06:48;;;;;;;36.00;27.02;;;19.20;99.90;;;;;;7271780;32;20128;-56
2023/08/12 03:10:50;;;;;;;38.58;26.48;;;19.20;99.90;;;;;;7265210;32;20511;-55
2023/08/12 03:14:52;;;;;;;36.40;26.08;;;19.20;99.90;;;;;;7273372;32;20501;-55
2023/08/12 03:18:53;;;;;;;37.92;26.25;;;19.20;99.90;;;;;;7272095;32;20199;-57
2023/08/12 03:22:55;;;;;;;29.80;23.10;;;19.20;99.90;;;;;;7264598;32;20569;-55
2023/08/12 03:26:57;;;;;;;32.60;24.73;;;19.20;99.90;;;;;;7265290;32;20127;-55
2023/08/12 03:30:58;;;;;;;31.55;22.30;;;19.20;99.90;;;;;;7265117;32;20247;-55
2023/08/12 03:35:00;;;;;;;27.35;20.73;;;19.20;99.90;;;;;;7266042;32;20127;-55
2023/08/12 03:39:02;;;;;;;34.85;22.45;;;19.20;99.90;;;;;;7265526;32;20200;-55
2023/08/12 03:43:04;;;;;;;29.58;21.70;;;19.30;99.90;;;;;;7266781;32;20108;-55
2023/08/12 03:47:06;;;;;;;31.15;21.27;;;19.30;99.90;;;;;;7266509;32;20108;-57
2023/08/12 03:51:08;;;;;;;25.65;17.85;;;19.30;99.90;;;;;;7277015;32;20151;-55
2023/08/12 03:55:10;;;;;;;31.40;20.02;;;19.20;99.90;;;;;;7271720;32;20236;-55
2023/08/12 03:59:11;;;;;;;26.58;16.73;;;19.30;99.90;;;;;;7271551;32;20700;-55
2023/08/12 04:03:13;;;;;;;19.60;14.87;;;19.20;99.90;;;;;;7269094;32;20119;-54
2023/08/12 04:07:15;;;;;;;24.87;17.40;;;19.20;99.90;;;;;;7280134;32;20101;-55
2023/08/12 04:11:17;;;;;;;22.25;17.67;;;19.20;99.90;;;;;;7277724;32;20123;-56
2023/08/12 04:15:18;;;;;;;25.73;18.75;;;19.30;99.90;;;;;;7278335;32;20467;-55
2023/08/12 04:19:20;;;;;;;26.17;17.52;;;19.20;99.90;;;;;;7265395;32;20108;-56
2023/08/12 04:23:22;;;;;;;19.95;16.70;;;19.20;99.90;;;;;;7276669;32;20126;-55
2023/08/12 04:27:24;;;;;;;26.90;16.27;;;19.20;99.90;;;;;;7271876;32;20195;-56
2023/08/12 04:31:25;;;;;;;19.23;14.80;;;19.10;99.90;;;;;;7268964;32;20162;-56
2023/08/12 04:35:27;;;;;;;18.10;15.20;;;19.10;99.90;;;;;;7271436;32;20937;-56
2023/08/12 04:39:29;;;;;;;17.67;12.48;;;19.10;99.90;;;;;;7270492;32;20103;-54
2023/08/12 04:43:31;;;;;;;19.35;14.55;;;19.10;99.90;;;;;;7271541;32;20262;-55
2023/08/12 04:47:33;;;;;;;17.80;15.20;;;19.20;99.90;;;;;;7270680;32;20100;-56
2023/08/12 04:51:35;;;;;;;17.50;14.57;;;19.30;99.90;;;;;;7277202;32;20198;-56
2023/08/12 04:55:37;;;;;;;19.30;14.90;;;19.40;99.90;;;;;;7265232;32;20617;-55
2023/08/12 04:59:38;;;;;;;19.67;14.38;;;19.40;99.90;;;;;;7264790;32;20522;-56
2023/08/12 05:03:40;;;;;;;15.60;12.52;;;19.50;99.90;;;;;;7260135;32;20670;-56
2023/08/12 05:07:44;;;;;;;18.70;12.63;;;19.60;99.90;;;;;;7259547;32;20258;-56
2023/08/12 05:11:45;;;;;;;17.52;12.30;;;19.50;99.90;;;;;;7271126;32;20093;-55
2023/08/12 05:15:48;;;;;;;12.93;11.52;;;19.50;99.90;;;;;;7275471;32;20519;-55
2023/08/12 05:19:49;;;;;;;13.20;9.40;;;19.50;99.90;;;;;;7267990;32;20151;-56
2023/08/12 05:23:51;;;;;;;14.10;10.32;;;19.50;99.90;;;;;;7269981;32;20205;-57
2023/08/12 05:27:53;;;;;;;15.48;10.52;;;19.50;99.90;;;;;;7275610;32;20124;-55
2023/08/12 05:31:54;;;;;;;12.35;10.32;;;19.50;99.90;;;;;;7275446;32;20184;-56
2023/08/12 05:35:56;;;;;;;16.45;11.05;;;19.50;99.90;;;;;;7275568;32;20107;-55
2023/08/12 05:39:58;;;;;;;11.77;8.73;;;19.50;99.90;;;;;;7271236;32;20179;-55
2023/08/12 05:44:00;;;;;;;10.77;9.48;;;19.40;99.90;;;;;;7270395;32;20163;-56
2023/08/12 05:48:01;;;;;;;13.27;9.38;;;19.50;99.90;;;;;;7268071;32;20117;-55
2023/08/12 05:52:04;;;;;;;16.02;9.18;;;19.50;99.90;;;;;;7270203;32;20169;-57
2023/08/12 05:56:06;;;;;;;12.07;8.98;;;19.60;99.90;;;;;;7274960;32;20112;-55
2023/08/12 06:00:08;;;;;;;11.82;8.65;;;19.70;99.90;;;;;;7272114;32;20286;-56
2023/08/12 06:04:10;;;;;;;12.88;8.63;;;19.70;99.90;;;;;;7270017;32;20119;-56
2023/08/12 06:08:12;;;;;;;12.30;8.75;;;19.70;99.90;;;;;;7267176;32;20116;-56
2023/08/12 06:12:14;;;;;;;12.73;8.35;;;19.60;99.90;;;;;;7264613;32;20230;-57
2023/08/12 06:16:16;;;;;;;14.07;8.90;;;19.60;99.90;;;;;;7267972;32;20156;-57
2023/08/12 06:20:17;;;;;;;14.00;8.70;;;19.60;99.90;;;;;;7273395;32;20124;-56
2023/08/12 06:24:19;;;;;;;11.35;8.93;;;19.50;99.90;;;;;;7270173;32;20284;-56
2023/08/12 06:28:21;;;;;;;12.07;9.05;;;19.50;99.90;;;;;;7266928;32;20814;-56
2023/08/12 06:32:23;;;;;;;15.85;9.70;;;19.40;99.90;;;;;;7268054;32;20111;-57
2023/08/12 06:36:24;;;;;;;11.32;10.13;;;19.40;99.90;;;;;;7270943;32;20122;-57
2023/08/12 06:40:27;;;;;;;11.68;9.57;;;19.30;99.90;;;;;;7267282;32;20127;-56
2023/08/12 06:44:29;;;;;;;12.88;9.93;;;19.30;99.90;;;;;;7269786;32;20183;-57
2023/08/12 06:48:31;;;;;;;11.35;9.85;;;19.30;99.90;;;;;;7266695;32;20440;-59
2023/08/12 06:52:32;;;;;;;12.35;9.98;;;19.30;99.90;;;;;;7267817;32;20100;-57
2023/08/12 06:56:34;;;;;;;12.13;10.15;;;19.20;99.90;;;;;;7268313;32;20620;-57
2023/08/12 07:00:36;;;;;;;12.37;9.77;;;19.30;99.90;;;;;;7268634;32;20139;-57
2023/08/12 07:04:37;;;;;;;12.68;9.70;;;19.30;99.90;;;;;;7267943;32;20148;-56
2023/08/12 07:08:39;;;;;;;11.35;8.20;;;19.40;99.90;;;;;;7268847;32;20219;-57
2023/08/12 07:12:41;;;;;;;9.30;8.07;;;19.50;99.90;;;;;;7269543;32;20610;-57
2023/08/12 07:16:43;;;;;;;14.00;8.25;;;19.60;99.90;;;;;;7268204;32;20191;-56
2023/08/12 07:20:44;;;;;;;12.80;7.90;;;19.60;99.90;;;;;;7274748;32;20257;-57
2023/08/12 07:24:46;;;;;;;9.43;8.43;;;19.70;99.90;;;;;;7269807;32;20821;-56
2023/08/12 07:28:48;;;;;;;9.15;8.25;;;19.70;99.90;;;;;;7271738;32;20707;-57
2023/08/12 07:32:49;;;;;;;11.02;8.88;;;19.60;99.90;;;;;;7273555;32;20129;-58
2023/08/12 07:36:51;;;;;;;11.57;9.13;;;19.70;99.90;;;;;;7270059;32;20129;-56
2023/08/12 07:40:53;;;;;;;10.52;8.95;;;19.70;99.90;;;;;;7272932;32;20108;-56
2023/08/12 07:44:55;;;;;;;14.02;9.65;;;19.80;99.90;;;;;;7274247;32;20195;-56
2023/08/12 07:48:57;;;;;;;11.15;9.98;;;19.90;99.90;;;;;;7268549;32;20190;-55
2023/08/12 07:52:58;;;;;;;9.90;8.90;;;20.00;99.90;;;;;;7269920;32;20112;-55
2023/08/12 07:57:00;;;;;;;8.95;8.05;;;20.00;99.90;;;;;;7272477;32;20105;-57
2023/08/12 08:01:02;;;;;;;9.75;8.75;;;20.00;99.90;;;;;;7268666;32;20144;-57
2023/08/12 08:05:04;;;;;;;10.68;8.65;;;20.00;99.90;;;;;;7272562;32;20668;-58
2023/08/12 08:09:06;;;;;;;14.23;9.30;;;20.00;99.90;;;;;;7268588;32;20139;-57
2023/08/12 08:13:08;;;;;;;10.10;8.88;;;20.00;99.90;;;;;;7278151;32;20100;-58
2023/08/12 08:17:09;;;;;;;9.55;8.52;;;20.00;99.90;;;;;;7271221;32;20336;-58
2023/08/12 08:21:11;;;;;;;10.30;8.65;;;20.00;99.90;;;;;;7265092;32;20292;-58
2023/08/12 08:25:13;;;;;;;9.63;8.70;;;20.10;99.90;;;;;;7276337;32;20322;-57
2023/08/12 08:29:15;;;;;;;11.80;9.18;;;20.20;99.90;;;;;;7271609;32;20259;-57
2023/08/12 08:33:16;;;;;;;9.48;8.48;;;20.30;99.90;;;;;;7271231;32;20545;-57
2023/08/12 08:37:18;;;;;;;12.15;8.05;;;20.40;99.90;;;;;;7269886;32;20776;-57
2023/08/12 08:41:21;;;;;;;10.85;8.30;;;20.50;99.90;;;;;;7268481;32;20123;-57
2023/08/12 08:45:23;;;;;;;10.52;9.40;;;20.50;99.90;;;;;;7271797;32;20187;-57
2023/08/12 08:49:26;;;;;;;11.02;8.75;;;20.50;99.90;;;;;;7267696;32;20203;-57
2023/08/12 08:53:27;;;;;;;8.90;6.90;;;20.70;99.90;;;;;;7273794;32;20615;-57
2023/08/12 08:57:30;;;;;;;7.55;6.68;;;20.80;99.90;;;;;;7269265;32;20474;-57
2023/08/12 09:01:53;;;;;;;7.10;6.40;;;20.80;99.90;;;;;;7269628;32;20180;-56
2023/08/12 09:05:56;;;;;;;5.50;5.00;;;20.80;99.90;;;;;;7266596;32;20195;-56
2023/08/12 09:10:01;;;;;;;7.03;4.87;;;20.70;99.90;;;;;;7270185;32;20105;-56
2023/08/12 09:14:02;;;;;;;6.22;5.07;;;20.60;99.90;;;;;;7272251;32;20130;-57
2023/08/12 09:18:06;;;;;;;7.90;4.70;;;20.50;99.90;;;;;;7269875;32;20143;-56
2023/08/12 09:22:11;;;;;;;6.57;4.45;;;20.50;99.90;;;;;;7268436;32;20123;-56
2023/08/12 09:26:15;;;;;;;5.62;3.70;;;20.50;99.90;;;;;;7270105;32;20159;-57
2023/08/12 09:30:17;;;;;;;9.35;4.47;;;20.50;99.90;;;;;;7272507;32;20122;-56
2023/08/12 09:34:19;;;;;;;5.93;3.62;;;20.50;99.90;;;;;;7269811;32;20157;-57
2023/08/12 09:38:21;;;;;;;10.18;4.00;;;20.50;99.90;;;;;;7267536;32;20211;-57
2023/08/12 09:42:23;;;;;;;7.40;3.87;;;20.60;99.90;;;;;;7268888;32;20113;-57
2023/08/12 09:46:24;;;;;;;4.97;3.03;;;20.60;99.90;;;;;;7268724;32;20129;-57
2023/08/12 09:50:27;;;;;;;5.25;3.10;;;20.60;99.90;;;;;;7267635;32;20225;-58
2023/08/12 09:54:31;;;;;;;4.55;3.20;;;20.70;99.90;;;;;;7271162;32;20224;-56
2023/08/12 09:58:36;;;;;;;5.22;2.55;;;20.70;99.90;;;;;;7274437;32;20112;-57
2023/08/12 10:02:41;;;;;;;4.20;2.80;;;20.70;99.90;;;;;;7270474;32;22350;-56
2023/08/12 10:06:44;;;;;;;3.83;2.55;;;20.80;99.90;;;;;;7267751;32;20166;-57
2023/08/12 10:10:46;;;;;;;3.62;2.10;;;20.90;99.90;;;;;;7270639;32;20104;-56
2023/08/12 10:15:00;;;;;;;3.85;2.05;;;21.00;99.90;;;;;;7268426;32;20486;-58
2023/08/12 10:19:06;;;;;;;5.78;2.00;;;21.00;99.90;;;;;;7265701;32;20117;-56
2023/08/12 10:23:14;;;;;;;4.43;1.67;;;20.90;99.90;;;;;;7264393;32;20215;-57
2023/08/12 10:27:16;;;;;;;3.67;1.83;;;21.00;99.90;;;;;;7273284;32;20237;-57
2023/08/12 10:31:19;;;;;;;2.92;1.65;;;21.00;99.90;;;;;;7268616;32;20105;-56
2023/08/12 10:35:21;;;;;;;4.47;1.62;;;21.00;99.90;;;;;;7267862;32;20211;-57
2023/08/12 10:39:28;;;;;;;2.92;1.60;;;21.00;99.90;;;;;;7269095;32;20100;-56
2023/08/12 10:44:03;;;;;;;2.37;1.40;;;21.00;99.90;;;;;;7265300;32;20255;-57
2023/08/12 10:48:11;;;;;;;2.37;1.40;;;21.00;99.90;;;;;;7266138;32;20606;-56
2023/08/12 10:52:30;;;;;;;2.83;1.17;;;20.90;99.90;;;;;;7266779;32;20158;-56
2023/08/12 10:56:51;;;;;;;2.20;1.30;;;20.90;99.90;;;;;;7266664;32;20636;-56
2023/08/12 11:00:57;;;;;;;1.62;0.93;;;21.10;99.90;;;;;;7268541;32;20132;-57
2023/08/12 11:05:08;;;;;;;2.92;1.20;;;21.20;99.90;;;;;;7267709;32;20435;-56
2023/08/12 11:09:10;;;;;;;2.70;1.10;;;21.30;99.90;;;;;;7264621;32;20582;-56
2023/08/12 11:13:14;;;;;;;3.90;1.12;;;21.30;99.90;;;;;;7268266;32;20104;-57
2023/08/12 11:17:16;;;;;;;1.05;0.80;;;21.30;99.90;;;;;;7268801;32;20263;-56
2023/08/12 11:21:18;;;;;;;1.48;0.93;;;21.50;99.90;;;;;;7269574;32;20126;-57
2023/08/12 11:25:19;;;;;;;2.70;0.90;;;21.60;99.90;;;;;;7265888;32;20219;-57
2023/08/12 11:29:21;;;;;;;3.28;1.05;;;21.80;99.90;;;;;;7266318;32;20113;-65
2023/08/12 11:33:24;;;;;;;1.70;1.00;;;21.80;99.90;;;;;;7257891;32;20211;-66
2023/08/12 11:37:25;;;;;;;1.20;0.90;;;21.90;99.90;;;;;;7267562;32;20175;-63
2023/08/12 11:41:27;;;;;;;1.00;0.90;;;22.00;99.90;;;;;;7265546;32;20187;-56
2023/08/12 11:45:29;;;;;;;1.90;0.95;;;22.10;99.90;;;;;;7261239;32;20108;-57
2023/08/12 11:49:31;;;;;;;1.48;0.93;;;22.10;99.90;;;;;;7263496;32;20180;-57
2023/08/12 11:53:32;;;;;;;3.60;1.00;;;22.10;99.90;;;;;;7265479;32;20581;-56
2023/08/12 11:57:34;;;;;;;3.00;1.08;;;21.90;99.90;;;;;;7267618;32;20483;-56
2023/08/12 12:01:36;;;;;;;1.27;0.60;;;22.20;99.90;;;;;;7269587;32;20673;-57
2023/08/12 12:05:38;;;;;;;1.87;0.55;;;22.50;99.90;;;;;;7264988;32;20191;-56
2023/08/12 12:09:43;;;;;;;1.60;1.10;;;22.70;99.90;;;;;;7274089;32;20101;-56
2023/08/12 12:13:47;;;;;;;1.10;0.80;;;22.80;99.90;;;;;;7273225;32;20111;-57
2023/08/12 12:17:52;;;;;;;1.25;0.50;;;23.10;99.90;;;;;;7271288;32;20105;-56
2023/08/12 12:21:54;;;;;;;1.45;0.57;;;23.20;99.90;;;;;;7278589;32;20193;-58
2023/08/12 12:26:03;;;;;;;2.25;0.50;;;23.20;99.90;;;;;;7271815;32;20187;-55
2023/08/12 12:30:09;;;;;;;1.08;0.98;;;22.70;99.90;;;;;;7273986;32;20238;-56
2023/08/12 12:34:11;;;;;;;4.37;1.20;;;21.90;99.90;;;;;;7271667;32;20108;-55
2023/08/12 12:38:13;;;;;;;2.05;1.62;;;21.00;99.90;;;;;;7271373;32;20742;-63
2023/08/12 12:42:15;;;;;;;2.55;2.22;;;20.70;99.90;;;;;;7272215;32;20234;-60
2023/08/12 12:46:16;;;;;;;5.00;2.50;;;20.50;99.90;;;;;;7271186;32;20179;-59
2023/08/12 12:50:18;;;;;;;2.62;2.33;;;20.40;99.90;;;;;;7269937;32;20230;-60
2023/08/12 12:54:20;;;;;;;2.65;2.42;;;20.30;99.90;;;;;;7270257;32;20177;-61
2023/08/12 12:58:23;;;;;;;3.85;2.75;;;20.20;99.90;;;;;;7274753;32;20572;-60
2023/08/12 13:02:24;;;;;;;3.97;3.58;;;20.10;99.90;;;;;;7271678;32;20116;-60
2023/08/12 13:06:26;;;;;;;4.50;3.60;;;20.10;99.90;;;;;;7271000;32;20626;-60
2023/08/12 13:10:28;;;;;;;4.35;3.87;;;20.30;99.90;;;;;;7271765;32;20202;-56
2023/08/12 13:14:30;;;;;;;4.65;3.90;;;20.50;99.90;;;;;;7272191;32;20096;-56
2023/08/12 13:18:32;;;;;;;4.70;4.30;;;20.70;99.90;;;;;;7265693;32;20101;-56
2023/08/12 13:22:33;;;;;;;6.60;6.00;;;20.80;99.90;;;;;;7264085;32;20171;-58
2023/08/12 13:26:35;;;;;;;6.87;6.28;;;20.90;99.90;;;;;;7268321;32;20103;-57
2023/08/12 13:30:37;;;;;;;7.75;6.97;;;20.90;99.90;;;;;;7270008;32;20345;-57
2023/08/12 13:34:39;;;;;;;8.60;7.80;;;20.90;99.90;;;;;;7270809;32;20191;-57
2023/08/12 13:38:40;;;;;;;9.35;8.45;;;20.90;99.90;;;;;;7269952;32;20132;-57
2023/08/12 13:42:42;;;;;;;8.45;7.72;;;20.90;99.90;;;;;;7272896;32;20576;-58
2023/08/12 13:46:44;;;;;;;8.07;7.10;;;20.90;99.90;;;;;;7266322;32;20206;-56
2023/08/12 13:50:49;;;;;;;9.18;7.80;;;20.90;99.90;;;;;;7268839;32;20531;-56
2023/08/12 13:54:51;;;;;;;6.07;5.50;;;21.00;99.90;;;;;;7268921;32;20523;-57
2023/08/12 13:58:52;;;;;;;4.90;4.37;;;20.90;99.90;;;;;;7269384;32;20104;-56
2023/08/12 14:02:54;;;;;;;5.00;4.53;;;21.00;99.90;;;;;;7267343;32;20127;-56
2023/08/12 14:06:56;;;;;;;7.20;5.15;;;21.10;99.90;;;;;;7259572;32;20863;-56
2023/08/12 14:10:58;;;;;;;6.80;4.97;;;21.30;99.90;;;;;;7266916;32;20565;-56
2023/08/12 14:15:00;;;;;;;4.60;3.92;;;21.50;99.90;;;;;;7272508;32;20118;-56
2023/08/12 14:19:02;;;;;;;3.80;3.33;;;21.70;99.90;;;;;;7266607;32;20158;-56
2023/08/12 14:23:04;;;;;;;4.28;3.97;;;21.90;99.90;;;;;;7268529;32;20733;-57
2023/08/12 14:27:05;;;;;;;3.95;3.65;;;22.40;99.90;;;;;;7272891;32;20131;-56
2023/08/12 14:31:07;;;;;;;4.72;4.10;;;22.40;99.90;;;;;;7269275;32;20100;-56
2023/08/12 14:35:09;;;;;;;4.25;3.85;;;22.20;99.90;;;;;;7262258;32;20101;-57
2023/08/12 14:39:11;;;;;;;4.05;3.65;;;22.00;99.90;;;;;;7266051;32;20097;-56
2023/08/12 14:43:13;;;;;;;4.60;3.70;;;22.30;99.90;;;;;;7262359;32;20379;-56
2023/08/12 14:47:14;;;;;;;3.97;3.67;;;22.30;99.90;;;;;;7271157;32;20505;-56
2023/08/12 14:51:17;;;;;;;4.40;3.80;;;22.30;99.90;;;;;;7264015;32;20570;-56
2023/08/12 14:55:18;;;;;;;5.00;3.42;;;22.50;99.90;;;;;;7265428;32;20195;-56
2023/08/12 14:59:20;;;;;;;2.90;2.70;;;22.30;99.90;;;;;;7265892;32;20621;-56
2023/08/12 15:03:22;;;;;;;3.12;2.83;;;22.30;99.90;;;;;;7268241;32;20122;-57
2023/08/12 15:07:24;;;;;;;4.47;3.80;;;22.10;99.90;;;;;;7272433;32;20158;-56
2023/08/12 15:11:25;;;;;;;6.15;5.18;;;21.90;99.90;;;;;;7271726;32;20093;-56
2023/08/12 15:15:27;;;;;;;5.87;4.50;;;22.00;99.90;;;;;;7268354;32;20744;-58
2023/08/12 15:19:29;;;;;;;4.37;3.42;;;21.90;99.90;;;;;;7260934;32;20156;-56
2023/08/12 15:23:32;;;;;;;6.60;3.65;;;21.60;99.90;;;;;;7270133;32;20128;-55
2023/08/12 15:27:34;;;;;;;7.05;4.47;;;21.40;99.90;;;;;;7272936;32;20108;-56
2023/08/12 15:31:37;;;;;;;6.03;3.58;;;21.50;99.90;;;;;;7266272;32;20104;-55
2023/08/12 15:35:41;;;;;;;4.22;3.22;;;21.60;99.90;;;;;;7271145;32;20187;-56
2023/08/12 15:39:43;;;;;;;6.82;3.58;;;21.60;99.90;;;;;;7268941;32;20158;-55
2023/08/12 15:43:44;;;;;;;5.18;3.60;;;21.50;99.90;;;;;;7277702;32;20104;-55
2023/08/12 15:47:46;;;;;;;5.03;3.62;;;21.50;99.90;;;;;;7267971;32;20295;-56
2023/08/12 15:51:48;;;;;;;7.60;3.97;;;21.50;99.90;;;;;;7278095;32;20251;-56
2023/08/12 15:55:50;;;;;;;4.40;4.00;;;21.40;99.90;;;;;;7270483;32;20249;-56
2023/08/12 15:59:53;;;;;;;6.68;3.55;;;21.50;99.90;;;;;;7265295;32;20638;-55
2023/08/12 16:03:54;;;;;;;7.68;3.80;;;21.50;99.90;;;;;;7279100;32;20146;-56
2023/08/12 16:07:56;;;;;;;6.65;2.80;;;21.60;99.90;;;;;;7273999;32;20104;-56
2023/08/12 16:11:58;;;;;;;9.95;3.70;;;21.60;99.90;;;;;;7262734;32;20619;-56
2023/08/12 16:15:59;;;;;;;7.97;3.65;;;21.60;99.90;;;;;;7272763;32;20105;-56
2023/08/12 16:20:02;;;;;;;8.23;2.92;;;21.60;99.90;;;;;;7266385;32;20226;-56
2023/08/12 16:24:04;;;;;;;8.30;2.47;;;21.70;99.90;;;;;;7271338;32;20165;-57
2023/08/12 16:28:06;;;;;;;4.82;2.67;;;21.60;99.90;;;;;;7280297;32;20152;-56
2023/08/12 16:32:08;;;;;;;6.37;2.80;;;21.60;99.90;;;;;;7276128;32;20279;-57
2023/08/12 16:36:09;;;;;;;7.18;2.92;;;21.50;99.90;;;;;;7273083;32;20293;-57
2023/08/12 16:40:11;;;;;;;6.00;2.70;;;21.50;99.90;;;;;;7269442;32;20107;-57
2023/08/12 16:44:13;;;;;;;5.47;2.70;;;21.50;99.90;;;;;;7270067;32;20109;-57
2023/08/12 16:48:15;;;;;;;6.62;2.80;;;21.50;99.90;;;;;;7269833;32;20246;-56
2023/08/12 16:52:17;;;;;;;4.50;2.33;;;21.50;99.90;;;;;;7271051;32;20222;-55
2023/08/12 16:56:18;;;;;;;5.95;2.62;;;21.30;99.90;;;;;;7267904;32;20229;-56
2023/08/12 17:00:20;;;;;;;5.82;2.00;;;21.40;99.90;;;;;;7272407;32;20310;-56
2023/08/12 17:04:22;;;;;;;4.78;2.30;;;21.40;99.90;;;;;;7267427;32;20285;-55
2023/08/12 17:08:24;;;;;;;5.62;2.05;;;21.30;99.90;;;;;;7268288;32;20175;-56
2023/08/12 17:12:26;;;;;;;4.32;1.80;;;21.50;99.90;;;;;;7270340;32;20149;-55
2023/08/12 17:16:27;;;;;;;2.72;1.33;;;21.50;99.90;;;;;;7276808;32;20685;-55
2023/08/12 17:20:29;;;;;;;2.80;1.42;;;21.40;99.90;;;;;;7267819;32;20182;-55
2023/08/12 17:24:33;;;;;;;4.50;1.33;;;21.30;99.90;;;;;;7263831;32;20191;-54
2023/08/12 17:28:34;;;;;;;5.18;1.58;;;21.20;99.90;;;;;;7273018;32;20255;-55
2023/08/12 17:32:36;;;;;;;3.80;2.00;;;21.20;99.90;;;;;;7267211;32;20638;-56
2023/08/12 17:36:38;;;;;;;5.43;1.67;;;21.20;99.90;;;;;;7269118;32;20577;-55
2023/08/12 17:40:39;;;;;;;7.93;1.92;;;21.00;99.90;;;;;;7269563;32;20169;-55
2023/08/12 17:44:41;;;;;;;5.62;1.65;;;21.10;99.90;;;;;;7268759;32;20346;-56
2023/08/12 17:48:43;;;;;;;4.60;1.65;;;21.00;99.90;;;;;;7270327;32;20134;-56
2023/08/12 17:52:44;;;;;;;4.28;1.48;;;20.80;99.90;;;;;;7271613;32;20100;-55
2023/08/12 17:56:46;;;;;;;6.57;1.73;;;20.80;99.90;;;;;;7272374;32;20139;-56
2023/08/12 18:00:48;;;;;;;7.15;1.62;;;20.80;99.90;;;;;;7267430;32;20201;-55
2023/08/12 18:04:50;;;;;;;3.85;1.30;;;20.70;99.90;;;;;;7266069;32;20207;-56
2023/08/12 18:08:52;;;;;;;2.83;1.50;;;20.60;99.90;;;;;;7266306;32;20178;-56
2023/08/12 18:12:54;;;;;;;5.12;1.55;;;20.40;99.90;;;;;;7270020;32;20197;-55
2023/08/12 18:16:56;;;;;;;4.30;1.30;;;20.40;99.90;;;;;;7270158;32;20104;-56
2023/08/12 18:20:57;;;;;;;3.97;1.40;;;20.20;99.90;;;;;;7269234;32;20837;-55
2023/08/12 18:24:59;;;;;;;7.68;1.70;;;20.10;99.90;;;;;;7270759;32;20195;-58
2023/08/12 18:29:01;;;;;;;3.70;1.67;;;19.90;99.90;;;;;;7265258;32;20159;-56
2023/08/12 18:33:05;;;;;;;6.07;1.90;;;19.70;99.90;;;;;;7268224;32;20116;-56
2023/08/12 18:37:07;;;;;;;4.12;1.73;;;19.50;99.90;;;;;;7269770;32;20105;-56
2023/08/12 18:41:08;;;;;;;6.80;1.85;;;19.20;99.90;;;;;;7267770;32;20100;-56
2023/08/12 18:45:10;;;;;;;7.78;2.00;;;19.00;99.90;;;;;;7271728;32;20117;-57
2023/08/12 18:49:13;;;;;;;8.25;1.80;;;18.80;99.90;;;;;;7266300;32;20194;-56
2023/08/12 18:53:14;;;;;;;7.78;2.20;;;18.70;99.90;;;;;;7268321;32;20124;-57
2023/08/12 18:57:16;;;;;;;5.53;2.35;;;18.40;99.90;;;;;;7269874;32;20269;-57
2023/08/12 19:01:18;;;;;;;9.82;2.30;;;18.20;99.90;;;;;;7267072;32;20131;-57
2023/08/12 19:05:20;;;;;;;7.50;2.12;;;18.10;99.90;;;;;;7262975;32;20555;-57
2023/08/12 19:09:21;;;;;;;9.02;2.72;;;18.00;99.90;;;;;;7267227;32;20132;-56
2023/08/12 19:13:24;;;;;;;8.75;2.40;;;17.80;99.90;;;;;;7268906;32;20254;-56
2023/08/12 19:17:26;;;;;;;9.32;2.83;;;17.70;99.90;;;;;;7271441;32;20223;-56
2023/08/12 19:21:27;;;;;;;6.50;2.40;;;17.60;99.90;;;;;;7271093;32;20245;-55
2023/08/12 19:25:30;;;;;;;12.00;3.22;;;17.50;99.90;;;;;;7275144;32;20517;-56
2023/08/12 19:29:33;;;;;;;7.25;2.47;;;17.40;99.90;;;;;;7273515;32;20560;-56
2023/08/12 19:33:34;;;;;;;12.02;3.53;;;17.30;99.90;;;;;;7275568;32;20116;-55
2023/08/12 19:37:36;;;;;;;7.15;3.03;;;17.20;99.90;;;;;;7276743;32;20250;-56
2023/08/12 19:41:38;;;;;;;9.88;3.30;;;17.10;99.90;;;;;;7273777;32;20719;-56
2023/08/12 19:45:40;;;;;;;9.82;3.55;;;17.00;99.90;;;;;;7272287;32;20122;-56
2023/08/12 19:49:41;;;;;;;8.63;3.05;;;17.00;99.90;;;;;;7275255;32;20179;-55
2023/08/12 19:53:43;;;;;;;19.95;4.30;;;16.90;99.90;;;;;;7274164;32;20148;-55
2023/08/12 19:57:48;;;;;;;10.35;3.30;;;16.80;99.90;;;;;;7271627;32;20281;-54
2023/08/12 20:01:50;;;;;;;6.43;2.70;;;16.80;99.90;;;;;;7269122;32;20192;-56
2023/08/12 20:05:52;;;;;;;5.95;2.47;;;16.70;99.90;;;;;;7272511;32;20185;-55
2023/08/12 20:09:53;;;;;;;6.60;2.95;;;16.60;99.90;;;;;;7276119;32;20171;-56
2023/08/12 20:13:55;;;;;;;7.32;2.90;;;16.50;99.90;;;;;;7277068;32;20131;-55
2023/08/12 20:17:57;;;;;;;7.97;2.50;;;16.40;99.90;;;;;;7274349;32;20360;-55
2023/08/12 20:21:59;;;;;;;6.05;2.05;;;16.40;99.90;;;;;;7270371;32;20571;-55
2023/08/12 20:26:01;;;;;;;7.28;2.85;;;16.30;99.90;;;;;;7270720;32;20301;-55
2023/08/12 20:30:04;;;;;;;5.32;2.17;;;16.30;99.90;;;;;;7272746;32;20197;-55
2023/08/12 20:34:09;;;;;;;7.17;2.37;;;16.20;99.90;;;;;;7272359;32;20515;-55
2023/08/12 20:38:11;;;;;;;6.68;2.12;;;16.20;99.90;;;;;;7270360;32;20282;-55
2023/08/12 20:42:13;;;;;;;7.05;2.70;;;16.10;99.90;;;;;;7275027;32;20100;-55
2023/08/12 20:46:15;;;;;;;7.82;2.42;;;16.10;99.90;;;;;;7270272;32;20108;-55
2023/08/12 20:50:17;;;;;;;9.93;2.40;;;16.00;99.90;;;;;;7270439;32;20122;-55